»·PEaware :: VRD1411 KLAX-KLAS

VRD1411 :: KLAX-KLAS

FLIGHT INFORMATION

Flight Status: Arrived
Operator:
Virgin America
More flights by this operator :: More flights under this callsign
Pilot: Michael M. (20724)
Aircraft: AIRBUS A319
(A319)
More flights by this aircraft type
Origin: KLAX Los Angeles Intl
United States
Destination: KLAS McCarran Intl
United States
More flights between these airports :: More routes between these airports
Route: +ORCKA3 MISEN KEPEC6
File this flight plan on PilotEdge
Remarks:
Altitude:
(Current/Filed)
29,000ft
Speed:
(Current/Filed)
0kts
Departed: 06-Oct-18 08:13 PM
Arrived: 06-Oct-18 09:00 PM
Distance/Time
Traveled:
205nm/0:46
Distance/Time
To Go:
Arrived

Flight Plot

Page will automatically refresh every two minutes.

Flight plan parsing failed; only flown route is shown


Map Options




Map Legend


Flown Route
Filed Route
Departure Airport
Arrival Airport
Navaid (VOR, NDB)
Fix

Horizontal Profiles

Position Reports

Time Latitude Longitude Heading Altitude Ground
Speed
06-Oct-18 19:44 33.941309 -118.402741 83 140ft 0kts
06-Oct-18 19:45 33.941309 -118.402741 83 140ft 0kts
06-Oct-18 19:46 33.941309 -118.402741 83 140ft 0kts
06-Oct-18 19:47 33.941309 -118.402741 83 140ft 0kts
06-Oct-18 19:48 33.941309 -118.402741 83 140ft 0kts
06-Oct-18 19:49 33.941309 -118.402741 83 140ft 0kts
06-Oct-18 19:50 33.941309 -118.402741 83 140ft 0kts
06-Oct-18 19:51 33.941309 -118.402741 83 140ft 0kts
06-Oct-18 19:52 33.941309 -118.402741 83 140ft 0kts
06-Oct-18 19:53 33.941309 -118.402741 83 140ft 0kts
06-Oct-18 19:54 33.941309 -118.402741 83 140ft 0kts
06-Oct-18 19:55 33.941309 -118.402741 83 140ft 0kts
06-Oct-18 19:56 33.941309 -118.402741 83 140ft 0kts
06-Oct-18 19:57 33.941309 -118.402741 83 140ft 0kts
06-Oct-18 19:58 33.941309 -118.402741 83 140ft 0kts
06-Oct-18 19:59 33.941309 -118.402741 83 140ft 0kts
06-Oct-18 20:00 33.941278 -118.403038 83 140ft 2kts
06-Oct-18 20:01 33.941201 -118.403794 83 140ft 1kts
06-Oct-18 20:02 33.941199 -118.403812 83 140ft 0kts
06-Oct-18 20:03 33.940813 -118.403310 176 140ft 4kts
06-Oct-18 20:04 33.940475 -118.403258 172 140ft 0kts
06-Oct-18 20:05 33.940473 -118.403258 172 140ft 0kts
06-Oct-18 20:06 33.940470 -118.403257 172 140ft 0kts
06-Oct-18 20:07 33.940467 -118.403257 172 140ft 0kts
06-Oct-18 20:08 33.938669 -118.401113 82 140ft 21kts
06-Oct-18 20:09 33.939385 -118.394243 82 140ft 13kts
06-Oct-18 20:10 33.939935 -118.388887 82 140ft 27kts
06-Oct-18 20:11 33.940720 -118.380984 102 140ft 0kts
06-Oct-18 20:12 33.940719 -118.380982 102 140ft 0kts
06-Oct-18 20:13 33.940719 -118.380979 102 140ft 0kts
06-Oct-18 20:14 33.939866 -118.380458 234 140ft 8kts
06-Oct-18 20:15 33.937065 -118.406159 262 449ft 184kts
06-Oct-18 20:16 33.930147 -118.471642 262 3190ft 237kts
06-Oct-18 20:17 33.921118 -118.557178 262 4976ft 265kts
06-Oct-18 20:18 33.912848 -118.645314 265 4996ft 265kts
06-Oct-18 20:19 33.859246 -118.683715 152 5848ft 269kts
06-Oct-18 20:20 33.827425 -118.607381 75 9552ft 285kts
06-Oct-18 20:21 33.870342 -118.527266 53 9995ft 285kts
06-Oct-18 20:22 33.917315 -118.449912 54 10378ft 304kts
06-Oct-18 20:23 33.972816 -118.357003 53 12728ft 361kts
06-Oct-18 20:24 34.033728 -118.257136 56 14174ft 374kts
06-Oct-18 20:25 34.092722 -118.151508 55 17267ft 387kts
06-Oct-18 20:26 34.155467 -118.042590 54 19850ft 402kts
06-Oct-18 20:27 34.221670 -117.930693 54 22061ft 416kts
06-Oct-18 20:28 34.289648 -117.815382 54 23937ft 428kts
06-Oct-18 20:29 34.359372 -117.696674 54 25559ft 438kts
06-Oct-18 20:30 34.430666 -117.574852 54 27041ft 448kts
06-Oct-18 20:31 34.503388 -117.450285 54 28418ft 456kts
06-Oct-18 20:32 34.577333 -117.323235 54 28994ft 462kts
06-Oct-18 20:33 34.651411 -117.195534 54 28998ft 462kts
06-Oct-18 20:34 34.725337 -117.067662 54 28998ft 462kts
06-Oct-18 20:35 34.798649 -116.940407 55 28998ft 462kts
06-Oct-18 20:36 34.872663 -116.811479 55 28998ft 462kts
06-Oct-18 20:37 34.946147 -116.683016 55 28998ft 462kts
06-Oct-18 20:38 35.018892 -116.555396 55 27042ft 452kts
06-Oct-18 20:39 35.090848 -116.430859 50 24105ft 461kts
06-Oct-18 20:40 35.177665 -116.318775 45 22241ft 432kts
06-Oct-18 20:41 35.256208 -116.220503 45 20362ft 384kts
06-Oct-18 20:42 35.328472 -116.128613 46 17759ft 366kts
06-Oct-18 20:43 35.397734 -116.039773 46 16392ft 360kts
06-Oct-18 20:44 35.466274 -115.951563 46 15290ft 354kts
06-Oct-18 20:45 35.532613 -115.865921 46 14188ft 337kts
06-Oct-18 20:46 35.593153 -115.787384 46 13119ft 300kts
06-Oct-18 20:47 35.649217 -115.714448 46 11555ft 286kts
06-Oct-18 20:48 35.711306 -115.650518 34 11549ft 292kts
06-Oct-18 20:49 35.777943 -115.593304 34 11549ft 291kts
06-Oct-18 20:50 35.844542 -115.536142 34 11549ft 291kts
06-Oct-18 20:51 35.911095 -115.478928 34 11549ft 291kts
06-Oct-18 20:52 35.977763 -115.421502 34 11340ft 291kts
06-Oct-18 20:53 36.027871 -115.350454 88 10598ft 274kts
06-Oct-18 20:54 36.022926 -115.265065 95 9082ft 257kts
06-Oct-18 20:55 36.016636 -115.176551 94 8865ft 252kts
06-Oct-18 20:56 36.013587 -115.095235 89 7346ft 229kts
06-Oct-18 20:57 36.013989 -115.017658 89 5525ft 223kts
06-Oct-18 20:58 36.046735 -114.977947 330 4997ft 193kts
06-Oct-18 20:59 36.078812 -115.026538 272 3500ft 175kts
06-Oct-18 21:00 36.077438 -115.084433 266 2762ft 161kts
06-Oct-18 21:01 36.076426 -115.132379 269 2196ft 112kts
06-Oct-18 21:02 36.076948 -115.146460 335 2195ft 14kts
06-Oct-18 21:03 36.077281 -115.146549 352 2195ft 0kts
06-Oct-18 21:04 36.077284 -115.146549 352 2195ft 0kts

Navigation Log

Ident Type
Flight plan parsing failed, navigation log unavailable